TAF Text Data
IDs:
Format:
Raw Decoded Include METAR

Data at: 1300 UTC 08 May 2021

METAR for:KTOB (Dodge Center Arpt, MN, US)
Text:KTOB 081255Z AUTO 13008KT 10SM CLR 06/M02 A3012 RMK AO2 PWINO
Temperature: 6.0°C ( 43°F)
Dewpoint: -2.0°C ( 28°F) [RH = 56%]
Pressure (altimeter):30.12 inches Hg (1020.1 mb)
Winds:from the SE (130 degrees) at 9 MPH (8 knots; 4.1 m/s)
Visibility:10 or more sm (16+ km)
Ceiling:at least 12,000 feet AGL
Clouds:sky clear below 12,000 feet AGL
QC Flag:automated observation with no human augmentation

TAF for:KTOB (Dodge Center Arpt, MN, US)
Text:No data found